Terminal Aerodrome Forecast
Issued by NWS

Home | Current Version | Previous Version | Text Only | Print | Product List | Glossary On
Versions: 1 2 3 4 5 6 7 8 9 10 11 12 13 14 15 16 17 18 19 20
720
FTUS41 KPBZ 231130
TAFAGC
TAF
KAGC 231130Z 2312/2412 07015G25KT P6SM -RA OVC020
     FM231600 06012G22KT 5SM -RA BR OVC010
     FM232100 05012KT 3SM -RA BR OVC008
     FM240200 02010KT 3SM -RASN BR OVC003
     FM240700 34005KT P6SM VCSH OVC008=

USA.gov is the U.S. government's official web portal to all federal, state and local government web resources and services.